sensor_id;sensor_type;location;lat;lon;timestamp;P1;durP1;ratioP1;P2;durP2;ratioP2
22219;SDS011;11279;48.364;10.904;2022-08-04T00:01:09;4.30;;;2.20;;
22219;SDS011;11279;48.364;10.904;2022-08-04T00:02:14;5.17;;;2.20;;
22219;SDS011;11279;48.364;10.904;2022-08-04T00:03:18;6.50;;;2.53;;
22219;SDS011;11279;48.364;10.904;2022-08-04T00:04:43;4.87;;;2.40;;
22219;SDS011;11279;48.364;10.904;2022-08-04T00:07:18;4.13;;;2.80;;
22219;SDS011;11279;48.364;10.904;2022-08-04T00:10:49;5.43;;;2.30;;
22219;SDS011;11279;48.364;10.904;2022-08-04T00:11:53;6.60;;;2.43;;
22219;SDS011;11279;48.364;10.904;2022-08-04T00:12:57;4.63;;;2.27;;
22219;SDS011;11279;48.364;10.904;2022-08-04T00:15:04;4.07;;;2.33;;
22219;SDS011;11279;48.364;10.904;2022-08-04T00:16:07;4.57;;;2.20;;
22219;SDS011;11279;48.364;10.904;2022-08-04T00:17:08;3.37;;;1.93;;
22219;SDS011;11279;48.364;10.904;2022-08-04T00:18:09;6.90;;;2.53;;
22219;SDS011;11279;48.364;10.904;2022-08-04T00:19:29;4.20;;;2.20;;
22219;SDS011;11279;48.364;10.904;2022-08-04T00:20:32;10.30;;;2.67;;
22219;SDS011;11279;48.364;10.904;2022-08-04T00:21:35;5.57;;;2.50;;
22219;SDS011;11279;48.364;10.904;2022-08-04T00:22:38;5.73;;;2.87;;
22219;SDS011;11279;48.364;10.904;2022-08-04T00:23:39;6.83;;;2.63;;
22219;SDS011;11279;48.364;10.904;2022-08-04T00:24:42;6.53;;;2.60;;
22219;SDS011;11279;48.364;10.904;2022-08-04T00:25:44;5.77;;;2.37;;
22219;SDS011;11279;48.364;10.904;2022-08-04T00:26:44;3.60;;;2.30;;
22219;SDS011;11279;48.364;10.904;2022-08-04T00:27:45;6.77;;;2.70;;
22219;SDS011;11279;48.364;10.904;2022-08-04T00:28:46;4.80;;;2.20;;
22219;SDS011;11279;48.364;10.904;2022-08-04T00:29:47;4.13;;;2.40;;
22219;SDS011;11279;48.364;10.904;2022-08-04T00:30:47;3.60;;;2.53;;
22219;SDS011;11279;48.364;10.904;2022-08-04T00:31:48;4.67;;;2.70;;
22219;SDS011;11279;48.364;10.904;2022-08-04T00:32:49;7.47;;;2.73;;
22219;SDS011;11279;48.364;10.904;2022-08-04T00:33:50;5.00;;;2.70;;
22219;SDS011;11279;48.364;10.904;2022-08-04T00:34:51;4.87;;;2.83;;
22219;SDS011;11279;48.364;10.904;2022-08-04T00:35:53;6.03;;;2.47;;
22219;SDS011;11279;48.364;10.904;2022-08-04T00:36:54;7.63;;;2.57;;
22219;SDS011;11279;48.364;10.904;2022-08-04T00:37:55;6.70;;;2.50;;
22219;SDS011;11279;48.364;10.904;2022-08-04T00:38:56;6.00;;;3.03;;
22219;SDS011;11279;48.364;10.904;2022-08-04T00:39:57;4.70;;;2.33;;
22219;SDS011;11279;48.364;10.904;2022-08-04T00:43:50;5.23;;;2.13;;
22219;SDS011;11279;48.364;10.904;2022-08-04T00:49:22;4.47;;;2.43;;
22219;SDS011;11279;48.364;10.904;2022-08-04T00:50:57;5.47;;;2.60;;
22219;SDS011;11279;48.364;10.904;2022-08-04T00:52:17;3.67;;;2.63;;
22219;SDS011;11279;48.364;10.904;2022-08-04T00:53:32;4.90;;;2.50;;
22219;SDS011;11279;48.364;10.904;2022-08-04T00:56:38;4.50;;;2.40;;
22219;SDS011;11279;48.364;10.904;2022-08-04T00:57:54;9.00;;;2.93;;
22219;SDS011;11279;48.364;10.904;2022-08-04T01:00:19;7.03;;;2.50;;
22219;SDS011;11279;48.364;10.904;2022-08-04T01:02:35;6.57;;;2.47;;
22219;SDS011;11279;48.364;10.904;2022-08-04T01:03:58;8.07;;;2.83;;
22219;SDS011;11279;48.364;10.904;2022-08-04T01:07:54;4.50;;;2.50;;
22219;SDS011;11279;48.364;10.904;2022-08-04T01:09:25;6.63;;;2.90;;
22219;SDS011;11279;48.364;10.904;2022-08-04T01:10:36;4.20;;;2.50;;
22219;SDS011;11279;48.364;10.904;2022-08-04T01:14:15;6.82;;;2.72;;
22219;SDS011;11279;48.364;10.904;2022-08-04T01:15:28;8.13;;;3.30;;
22219;SDS011;11279;48.364;10.904;2022-08-04T01:16:37;4.60;;;2.63;;
22219;SDS011;11279;48.364;10.904;2022-08-04T01:17:57;5.40;;;2.63;;
22219;SDS011;11279;48.364;10.904;2022-08-04T01:19:00;4.95;;;2.83;;
22219;SDS011;11279;48.364;10.904;2022-08-04T01:20:03;7.70;;;3.33;;
22219;SDS011;11279;48.364;10.904;2022-08-04T01:24:50;6.50;;;3.03;;
22219;SDS011;11279;48.364;10.904;2022-08-04T01:27:02;6.70;;;3.37;;
22219;SDS011;11279;48.364;10.904;2022-08-04T01:28:13;6.20;;;2.83;;
22219;SDS011;11279;48.364;10.904;2022-08-04T01:29:50;9.95;;;2.90;;
22219;SDS011;11279;48.364;10.904;2022-08-04T01:31:00;3.25;;;2.33;;
22219;SDS011;11279;48.364;10.904;2022-08-04T01:32:41;8.07;;;3.00;;
22219;SDS011;11279;48.364;10.904;2022-08-04T01:33:34;7.90;;;3.00;;
22219;SDS011;11279;48.364;10.904;2022-08-04T01:34:41;6.10;;;2.97;;
22219;SDS011;11279;48.364;10.904;2022-08-04T01:36:57;3.97;;;2.67;;
22219;SDS011;11279;48.364;10.904;2022-08-04T01:38:00;6.43;;;2.80;;
22219;SDS011;11279;48.364;10.904;2022-08-04T01:39:04;4.82;;;2.72;;
22219;SDS011;11279;48.364;10.904;2022-08-04T01:40:23;3.58;;;2.60;;
22219;SDS011;11279;48.364;10.904;2022-08-04T01:41:26;7.43;;;2.65;;
22219;SDS011;11279;48.364;10.904;2022-08-04T01:42:26;6.13;;;3.37;;
22219;SDS011;11279;48.364;10.904;2022-08-04T01:43:28;4.88;;;3.00;;
22219;SDS011;11279;48.364;10.904;2022-08-04T01:44:29;5.13;;;2.77;;
22219;SDS011;11279;48.364;10.904;2022-08-04T01:45:30;6.10;;;3.17;;
22219;SDS011;11279;48.364;10.904;2022-08-04T01:46:30;5.30;;;2.80;;
22219;SDS011;11279;48.364;10.904;2022-08-04T01:47:33;8.32;;;3.00;;
22219;SDS011;11279;48.364;10.904;2022-08-04T01:48:37;11.93;;;2.92;;
22219;SDS011;11279;48.364;10.904;2022-08-04T01:49:38;6.75;;;2.78;;
22219;SDS011;11279;48.364;10.904;2022-08-04T01:50:39;4.97;;;2.63;;
22219;SDS011;11279;48.364;10.904;2022-08-04T01:51:42;5.03;;;2.67;;
22219;SDS011;11279;48.364;10.904;2022-08-04T01:52:43;4.47;;;3.00;;
22219;SDS011;11279;48.364;10.904;2022-08-04T01:53:44;4.47;;;2.75;;
22219;SDS011;11279;48.364;10.904;2022-08-04T01:54:45;6.07;;;3.20;;
22219;SDS011;11279;48.364;10.904;2022-08-04T01:55:47;4.93;;;3.30;;
22219;SDS011;11279;48.364;10.904;2022-08-04T01:56:49;5.55;;;2.65;;
22219;SDS011;11279;48.364;10.904;2022-08-04T01:57:50;5.05;;;3.03;;
22219;SDS011;11279;48.364;10.904;2022-08-04T01:58:51;4.65;;;2.75;;
22219;SDS011;11279;48.364;10.904;2022-08-04T01:59:57;6.85;;;2.85;;
22219;SDS011;11279;48.364;10.904;2022-08-04T02:01:08;5.13;;;3.00;;
22219;SDS011;11279;48.364;10.904;2022-08-04T02:02:10;6.20;;;3.10;;
22219;SDS011;11279;48.364;10.904;2022-08-04T02:03:10;4.00;;;2.50;;
22219;SDS011;11279;48.364;10.904;2022-08-04T02:04:13;8.07;;;3.13;;
22219;SDS011;11279;48.364;10.904;2022-08-04T02:05:15;7.88;;;2.83;;
22219;SDS011;11279;48.364;10.904;2022-08-04T02:06:18;6.75;;;2.92;;
22219;SDS011;11279;48.364;10.904;2022-08-04T02:09:07;6.13;;;2.85;;
22219;SDS011;11279;48.364;10.904;2022-08-04T02:11:31;4.45;;;2.65;;
22219;SDS011;11279;48.364;10.904;2022-08-04T02:13:48;5.78;;;3.10;;
22219;SDS011;11279;48.364;10.904;2022-08-04T02:14:55;4.80;;;2.95;;
22219;SDS011;11279;48.364;10.904;2022-08-04T02:16:11;6.90;;;3.10;;
22219;SDS011;11279;48.364;10.904;2022-08-04T02:20:59;4.50;;;3.10;;
22219;SDS011;11279;48.364;10.904;2022-08-04T02:22:06;6.50;;;3.08;;
22219;SDS011;11279;48.364;10.904;2022-08-04T02:23:09;6.93;;;3.10;;
22219;SDS011;11279;48.364;10.904;2022-08-04T02:24:14;4.32;;;3.15;;
22219;SDS011;11279;48.364;10.904;2022-08-04T02:25:17;11.10;;;3.08;;
22219;SDS011;11279;48.364;10.904;2022-08-04T02:26:21;6.85;;;3.22;;
22219;SDS011;11279;48.364;10.904;2022-08-04T02:27:28;5.00;;;2.85;;
22219;SDS011;11279;48.364;10.904;2022-08-04T02:29:43;6.05;;;2.80;;
22219;SDS011;11279;48.364;10.904;2022-08-04T02:31:03;5.35;;;3.10;;
22219;SDS011;11279;48.364;10.904;2022-08-04T02:32:24;5.30;;;2.80;;
22219;SDS011;11279;48.364;10.904;2022-08-04T02:33:29;4.95;;;3.05;;
22219;SDS011;11279;48.364;10.904;2022-08-04T02:36:20;4.60;;;3.00;;
22219;SDS011;11279;48.364;10.904;2022-08-04T02:37:23;6.10;;;3.10;;
22219;SDS011;11279;48.364;10.904;2022-08-04T02:39:50;5.60;;;3.17;;
22219;SDS011;11279;48.364;10.904;2022-08-04T02:40:53;10.85;;;3.45;;
22219;SDS011;11279;48.364;10.904;2022-08-04T02:41:55;4.13;;;3.00;;
22219;SDS011;11279;48.364;10.904;2022-08-04T02:42:58;6.78;;;2.72;;
22219;SDS011;11279;48.364;10.904;2022-08-04T02:44:04;4.68;;;3.08;;
22219;SDS011;11279;48.364;10.904;2022-08-04T02:45:05;6.07;;;3.17;;
22219;SDS011;11279;48.364;10.904;2022-08-04T02:46:06;6.75;;;3.00;;
22219;SDS011;11279;48.364;10.904;2022-08-04T02:47:08;8.52;;;3.33;;
22219;SDS011;11279;48.364;10.904;2022-08-04T02:48:08;4.90;;;3.13;;
22219;SDS011;11279;48.364;10.904;2022-08-04T02:49:09;8.27;;;3.70;;
22219;SDS011;11279;48.364;10.904;2022-08-04T02:50:09;5.27;;;3.20;;
22219;SDS011;11279;48.364;10.904;2022-08-04T02:51:12;7.63;;;3.20;;
22219;SDS011;11279;48.364;10.904;2022-08-04T02:52:13;5.90;;;3.22;;
22219;SDS011;11279;48.364;10.904;2022-08-04T02:53:14;8.37;;;3.60;;
22219;SDS011;11279;48.364;10.904;2022-08-04T02:54:18;5.35;;;3.25;;
22219;SDS011;11279;48.364;10.904;2022-08-04T02:55:21;5.18;;;3.20;;
22219;SDS011;11279;48.364;10.904;2022-08-04T02:56:23;5.90;;;3.13;;
22219;SDS011;11279;48.364;10.904;2022-08-04T02:57:26;5.47;;;3.17;;
22219;SDS011;11279;48.364;10.904;2022-08-04T02:58:30;6.30;;;3.42;;
22219;SDS011;11279;48.364;10.904;2022-08-04T03:01:13;4.72;;;2.83;;
22219;SDS011;11279;48.364;10.904;2022-08-04T03:02:14;5.03;;;3.30;;
22219;SDS011;11279;48.364;10.904;2022-08-04T03:03:30;6.97;;;3.03;;
22219;SDS011;11279;48.364;10.904;2022-08-04T03:04:41;7.32;;;3.10;;
22219;SDS011;11279;48.364;10.904;2022-08-04T03:05:54;8.70;;;3.42;;
22219;SDS011;11279;48.364;10.904;2022-08-04T03:07:19;7.93;;;3.38;;
22219;SDS011;11279;48.364;10.904;2022-08-04T03:08:48;7.43;;;3.40;;
22219;SDS011;11279;48.364;10.904;2022-08-04T03:10:32;10.13;;;3.80;;
22219;SDS011;11279;48.364;10.904;2022-08-04T03:11:50;7.20;;;3.20;;
22219;SDS011;11279;48.364;10.904;2022-08-04T03:18:36;7.63;;;3.80;;
22219;SDS011;11279;48.364;10.904;2022-08-04T03:21:30;5.05;;;3.20;;
22219;SDS011;11279;48.364;10.904;2022-08-04T03:22:50;7.60;;;3.50;;
22219;SDS011;11279;48.364;10.904;2022-08-04T03:25:13;5.43;;;3.33;;
22219;SDS011;11279;48.364;10.904;2022-08-04T03:26:45;8.07;;;3.42;;
22219;SDS011;11279;48.364;10.904;2022-08-04T03:36:02;9.75;;;3.45;;
22219;SDS011;11279;48.364;10.904;2022-08-04T03:37:24;8.40;;;3.50;;
22219;SDS011;11279;48.364;10.904;2022-08-04T03:45:38;8.88;;;3.95;;
22219;SDS011;11279;48.364;10.904;2022-08-04T03:51:49;13.18;;;4.22;;
22219;SDS011;11279;48.364;10.904;2022-08-04T03:53:41;8.25;;;3.35;;
22219;SDS011;11279;48.364;10.904;2022-08-04T03:56:31;8.77;;;3.53;;
22219;SDS011;11279;48.364;10.904;2022-08-04T03:57:46;9.93;;;3.80;;
22219;SDS011;11279;48.364;10.904;2022-08-04T04:00:35;8.48;;;3.47;;
22219;SDS011;11279;48.364;10.904;2022-08-04T04:04:55;10.30;;;3.90;;
22219;SDS011;11279;48.364;10.904;2022-08-04T04:10:02;6.78;;;3.75;;
22219;SDS011;11279;48.364;10.904;2022-08-04T04:14:11;12.43;;;3.40;;
22219;SDS011;11279;48.364;10.904;2022-08-04T04:15:19;10.40;;;4.05;;
22219;SDS011;11279;48.364;10.904;2022-08-04T04:21:28;11.32;;;3.70;;
22219;SDS011;11279;48.364;10.904;2022-08-04T04:24:02;6.90;;;3.65;;
22219;SDS011;11279;48.364;10.904;2022-08-04T04:27:39;6.97;;;3.80;;
22219;SDS011;11279;48.364;10.904;2022-08-04T04:31:30;8.93;;;3.80;;
22219;SDS011;11279;48.364;10.904;2022-08-04T04:35:32;9.43;;;3.90;;
22219;SDS011;11279;48.364;10.904;2022-08-04T04:42:37;5.07;;;3.78;;
22219;SDS011;11279;48.364;10.904;2022-08-04T04:43:50;5.28;;;3.50;;
22219;SDS011;11279;48.364;10.904;2022-08-04T04:45:02;12.05;;;3.78;;
22219;SDS011;11279;48.364;10.904;2022-08-04T04:47:40;12.02;;;3.58;;
22219;SDS011;11279;48.364;10.904;2022-08-04T04:49:44;7.63;;;3.63;;
22219;SDS011;11279;48.364;10.904;2022-08-04T04:50:45;8.35;;;3.40;;
22219;SDS011;11279;48.364;10.904;2022-08-04T04:52:18;6.43;;;3.83;;
22219;SDS011;11279;48.364;10.904;2022-08-04T04:53:27;6.18;;;3.83;;
22219;SDS011;11279;48.364;10.904;2022-08-04T04:57:22;7.15;;;4.00;;
22219;SDS011;11279;48.364;10.904;2022-08-04T04:58:23;9.00;;;4.25;;
22219;SDS011;11279;48.364;10.904;2022-08-04T04:59:25;11.27;;;4.47;;
22219;SDS011;11279;48.364;10.904;2022-08-04T05:00:32;10.32;;;4.10;;
22219;SDS011;11279;48.364;10.904;2022-08-04T05:07:37;7.38;;;3.90;;
22219;SDS011;11279;48.364;10.904;2022-08-04T05:08:56;5.80;;;3.65;;
22219;SDS011;11279;48.364;10.904;2022-08-04T05:10:14;5.53;;;3.90;;
22219;SDS011;11279;48.364;10.904;2022-08-04T05:11:52;6.38;;;3.47;;
22219;SDS011;11279;48.364;10.904;2022-08-04T05:13:05;7.07;;;4.07;;
22219;SDS011;11279;48.364;10.904;2022-08-04T05:14:43;7.05;;;3.65;;
22219;SDS011;11279;48.364;10.904;2022-08-04T05:15:45;7.97;;;3.78;;
22219;SDS011;11279;48.364;10.904;2022-08-04T05:16:50;5.50;;;3.60;;
22219;SDS011;11279;48.364;10.904;2022-08-04T05:17:55;7.88;;;4.38;;
22219;SDS011;11279;48.364;10.904;2022-08-04T05:18:57;6.50;;;3.70;;
22219;SDS011;11279;48.364;10.904;2022-08-04T05:20:13;6.07;;;3.65;;
22219;SDS011;11279;48.364;10.904;2022-08-04T05:21:18;7.47;;;3.88;;
22219;SDS011;11279;48.364;10.904;2022-08-04T05:22:55;7.22;;;3.70;;
22219;SDS011;11279;48.364;10.904;2022-08-04T05:24:08;7.72;;;3.90;;
22219;SDS011;11279;48.364;10.904;2022-08-04T05:25:15;7.53;;;3.97;;
22219;SDS011;11279;48.364;10.904;2022-08-04T05:26:18;7.38;;;4.15;;
22219;SDS011;11279;48.364;10.904;2022-08-04T05:27:25;7.35;;;3.80;;
22219;SDS011;11279;48.364;10.904;2022-08-04T05:29:44;7.82;;;3.88;;
22219;SDS011;11279;48.364;10.904;2022-08-04T05:30:50;10.20;;;3.67;;
22219;SDS011;11279;48.364;10.904;2022-08-04T05:32:00;7.65;;;3.70;;
22219;SDS011;11279;48.364;10.904;2022-08-04T05:33:03;5.53;;;3.85;;
22219;SDS011;11279;48.364;10.904;2022-08-04T05:34:10;8.07;;;3.95;;
22219;SDS011;11279;48.364;10.904;2022-08-04T05:35:15;8.47;;;3.63;;
22219;SDS011;11279;48.364;10.904;2022-08-04T05:36:21;7.18;;;3.35;;
22219;SDS011;11279;48.364;10.904;2022-08-04T05:37:24;6.27;;;3.50;;
22219;SDS011;11279;48.364;10.904;2022-08-04T05:38:26;9.80;;;4.33;;
22219;SDS011;11279;48.364;10.904;2022-08-04T05:39:31;8.33;;;3.80;;
22219;SDS011;11279;48.364;10.904;2022-08-04T05:40:45;7.97;;;4.07;;
22219;SDS011;11279;48.364;10.904;2022-08-04T05:41:52;7.10;;;3.40;;
22219;SDS011;11279;48.364;10.904;2022-08-04T05:42:52;11.80;;;4.03;;
22219;SDS011;11279;48.364;10.904;2022-08-04T05:43:54;9.40;;;3.80;;
22219;SDS011;11279;48.364;10.904;2022-08-04T05:44:55;8.60;;;3.80;;
22219;SDS011;11279;48.364;10.904;2022-08-04T05:45:56;11.37;;;4.10;;
22219;SDS011;11279;48.364;10.904;2022-08-04T05:46:57;5.90;;;3.77;;
22219;SDS011;11279;48.364;10.904;2022-08-04T05:47:58;9.47;;;4.47;;
22219;SDS011;11279;48.364;10.904;2022-08-04T05:48:58;12.40;;;4.17;;
22219;SDS011;11279;48.364;10.904;2022-08-04T05:49:59;6.87;;;4.07;;
22219;SDS011;11279;48.364;10.904;2022-08-04T05:51:02;10.30;;;4.20;;
22219;SDS011;11279;48.364;10.904;2022-08-04T05:52:03;6.57;;;3.67;;
22219;SDS011;11279;48.364;10.904;2022-08-04T05:53:04;7.30;;;3.80;;
22219;SDS011;11279;48.364;10.904;2022-08-04T05:54:05;9.63;;;3.63;;
22219;SDS011;11279;48.364;10.904;2022-08-04T05:55:07;8.33;;;3.87;;
22219;SDS011;11279;48.364;10.904;2022-08-04T05:56:09;9.80;;;3.90;;
22219;SDS011;11279;48.364;10.904;2022-08-04T05:57:11;6.83;;;3.40;;
22219;SDS011;11279;48.364;10.904;2022-08-04T05:58:13;10.80;;;4.13;;
22219;SDS011;11279;48.364;10.904;2022-08-04T05:59:15;7.13;;;3.73;;
22219;SDS011;11279;48.364;10.904;2022-08-04T06:00:17;8.47;;;3.77;;
22219;SDS011;11279;48.364;10.904;2022-08-04T06:01:18;7.50;;;3.97;;
22219;SDS011;11279;48.364;10.904;2022-08-04T06:02:19;10.23;;;4.37;;
22219;SDS011;11279;48.364;10.904;2022-08-04T06:03:20;5.97;;;4.00;;
22219;SDS011;11279;48.364;10.904;2022-08-04T06:04:22;11.00;;;4.37;;
22219;SDS011;11279;48.364;10.904;2022-08-04T06:05:24;8.10;;;4.67;;
22219;SDS011;11279;48.364;10.904;2022-08-04T06:06:25;8.13;;;4.27;;
22219;SDS011;11279;48.364;10.904;2022-08-04T06:07:26;8.17;;;3.80;;
22219;SDS011;11279;48.364;10.904;2022-08-04T06:08:27;7.17;;;3.90;;
22219;SDS011;11279;48.364;10.904;2022-08-04T06:09:29;7.93;;;3.63;;
22219;SDS011;11279;48.364;10.904;2022-08-04T06:10:30;7.07;;;3.50;;
22219;SDS011;11279;48.364;10.904;2022-08-04T06:11:31;8.23;;;3.90;;
22219;SDS011;11279;48.364;10.904;2022-08-04T06:12:35;4.80;;;3.20;;
22219;SDS011;11279;48.364;10.904;2022-08-04T06:13:43;6.57;;;3.27;;
22219;SDS011;11279;48.364;10.904;2022-08-04T06:14:47;5.37;;;3.57;;
22219;SDS011;11279;48.364;10.904;2022-08-04T06:15:49;4.30;;;3.00;;
22219;SDS011;11279;48.364;10.904;2022-08-04T06:16:50;7.10;;;3.37;;
22219;SDS011;11279;48.364;10.904;2022-08-04T06:17:53;7.00;;;3.63;;
22219;SDS011;11279;48.364;10.904;2022-08-04T06:18:57;13.57;;;4.97;;
22219;SDS011;11279;48.364;10.904;2022-08-04T06:20:00;10.67;;;4.50;;
22219;SDS011;11279;48.364;10.904;2022-08-04T06:21:02;11.43;;;3.90;;
22219;SDS011;11279;48.364;10.904;2022-08-04T06:22:03;6.93;;;3.50;;
22219;SDS011;11279;48.364;10.904;2022-08-04T06:23:09;6.97;;;3.50;;
22219;SDS011;11279;48.364;10.904;2022-08-04T06:24:12;7.77;;;3.23;;
22219;SDS011;11279;48.364;10.904;2022-08-04T06:25:16;9.17;;;3.30;;
22219;SDS011;11279;48.364;10.904;2022-08-04T06:26:20;5.57;;;3.17;;
22219;SDS011;11279;48.364;10.904;2022-08-04T06:27:21;7.57;;;3.07;;
22219;SDS011;11279;48.364;10.904;2022-08-04T06:28:22;8.97;;;3.30;;
22219;SDS011;11279;48.364;10.904;2022-08-04T06:29:24;7.13;;;2.90;;
22219;SDS011;11279;48.364;10.904;2022-08-04T06:30:35;4.20;;;3.00;;
22219;SDS011;11279;48.364;10.904;2022-08-04T06:31:36;3.60;;;2.90;;
22219;SDS011;11279;48.364;10.904;2022-08-04T06:32:42;21.87;;;4.70;;
22219;SDS011;11279;48.364;10.904;2022-08-04T06:33:48;12.17;;;3.67;;
22219;SDS011;11279;48.364;10.904;2022-08-04T06:34:56;9.50;;;3.83;;
22219;SDS011;11279;48.364;10.904;2022-08-04T06:35:58;4.57;;;2.90;;
22219;SDS011;11279;48.364;10.904;2022-08-04T06:37:00;7.70;;;3.90;;
22219;SDS011;11279;48.364;10.904;2022-08-04T06:38:01;5.40;;;3.73;;
22219;SDS011;11279;48.364;10.904;2022-08-04T06:39:02;5.23;;;3.40;;
22219;SDS011;11279;48.364;10.904;2022-08-04T06:40:04;4.27;;;3.03;;
22219;SDS011;11279;48.364;10.904;2022-08-04T06:41:07;7.37;;;3.20;;
22219;SDS011;11279;48.364;10.904;2022-08-04T06:42:08;6.43;;;2.80;;
22219;SDS011;11279;48.364;10.904;2022-08-04T06:43:09;7.97;;;3.40;;
22219;SDS011;11279;48.364;10.904;2022-08-04T06:44:10;8.20;;;3.27;;
22219;SDS011;11279;48.364;10.904;2022-08-04T06:45:11;6.17;;;3.40;;
22219;SDS011;11279;48.364;10.904;2022-08-04T06:46:13;5.37;;;2.90;;
22219;SDS011;11279;48.364;10.904;2022-08-04T06:47:14;6.00;;;3.20;;
22219;SDS011;11279;48.364;10.904;2022-08-04T06:48:18;4.70;;;2.90;;
22219;SDS011;11279;48.364;10.904;2022-08-04T06:49:19;5.00;;;2.95;;
22219;SDS011;11279;48.364;10.904;2022-08-04T06:50:21;4.78;;;3.10;;
22219;SDS011;11279;48.364;10.904;2022-08-04T06:51:22;5.53;;;2.90;;
22219;SDS011;11279;48.364;10.904;2022-08-04T06:52:23;4.85;;;3.47;;
22219;SDS011;11279;48.364;10.904;2022-08-04T06:53:24;3.75;;;3.05;;
22219;SDS011;11279;48.364;10.904;2022-08-04T06:54:25;4.00;;;3.10;;
22219;SDS011;11279;48.364;10.904;2022-08-04T06:55:25;6.82;;;2.88;;
22219;SDS011;11279;48.364;10.904;2022-08-04T06:56:26;6.72;;;3.50;;
22219;SDS011;11279;48.364;10.904;2022-08-04T06:57:28;7.93;;;3.60;;
22219;SDS011;11279;48.364;10.904;2022-08-04T06:58:29;7.45;;;3.90;;
22219;SDS011;11279;48.364;10.904;2022-08-04T06:59:31;6.45;;;3.17;;
22219;SDS011;11279;48.364;10.904;2022-08-04T07:00:31;7.05;;;3.60;;
22219;SDS011;11279;48.364;10.904;2022-08-04T07:01:34;6.85;;;3.10;;
22219;SDS011;11279;48.364;10.904;2022-08-04T07:02:38;6.65;;;3.38;;
22219;SDS011;11279;48.364;10.904;2022-08-04T07:03:41;6.43;;;3.13;;
22219;SDS011;11279;48.364;10.904;2022-08-04T07:04:42;5.82;;;3.10;;
22219;SDS011;11279;48.364;10.904;2022-08-04T07:05:45;6.45;;;3.25;;
22219;SDS011;11279;48.364;10.904;2022-08-04T07:06:46;4.40;;;2.90;;
22219;SDS011;11279;48.364;10.904;2022-08-04T07:07:46;9.02;;;3.30;;
22219;SDS011;11279;48.364;10.904;2022-08-04T07:08:48;5.68;;;3.33;;
22219;SDS011;11279;48.364;10.904;2022-08-04T07:09:48;5.60;;;3.30;;
22219;SDS011;11279;48.364;10.904;2022-08-04T07:10:49;6.45;;;3.40;;
22219;SDS011;11279;48.364;10.904;2022-08-04T07:11:52;8.60;;;3.00;;
22219;SDS011;11279;48.364;10.904;2022-08-04T07:12:54;6.43;;;3.17;;
22219;SDS011;11279;48.364;10.904;2022-08-04T07:13:55;6.43;;;2.78;;
22219;SDS011;11279;48.364;10.904;2022-08-04T07:14:56;5.03;;;3.13;;
22219;SDS011;11279;48.364;10.904;2022-08-04T07:15:57;5.57;;;2.92;;
22219;SDS011;11279;48.364;10.904;2022-08-04T07:16:58;4.90;;;2.90;;
22219;SDS011;11279;48.364;10.904;2022-08-04T07:17:59;5.90;;;3.60;;
22219;SDS011;11279;48.364;10.904;2022-08-04T07:19:02;6.00;;;3.05;;
22219;SDS011;11279;48.364;10.904;2022-08-04T07:20:03;4.57;;;3.50;;
22219;SDS011;11279;48.364;10.904;2022-08-04T07:21:04;7.05;;;3.55;;
22219;SDS011;11279;48.364;10.904;2022-08-04T07:22:06;8.07;;;3.50;;
22219;SDS011;11279;48.364;10.904;2022-08-04T07:23:06;5.28;;;3.25;;
22219;SDS011;11279;48.364;10.904;2022-08-04T07:24:07;5.15;;;3.45;;
22219;SDS011;11279;48.364;10.904;2022-08-04T07:25:08;4.70;;;3.67;;
22219;SDS011;11279;48.364;10.904;2022-08-04T07:26:09;9.23;;;2.80;;
22219;SDS011;11279;48.364;10.904;2022-08-04T07:27:10;7.75;;;3.20;;
22219;SDS011;11279;48.364;10.904;2022-08-04T07:28:10;4.90;;;3.50;;
22219;SDS011;11279;48.364;10.904;2022-08-04T07:29:13;4.38;;;3.03;;
22219;SDS011;11279;48.364;10.904;2022-08-04T07:30:13;9.10;;;3.45;;
22219;SDS011;11279;48.364;10.904;2022-08-04T07:31:15;7.05;;;2.92;;
22219;SDS011;11279;48.364;10.904;2022-08-04T07:32:18;6.15;;;3.13;;
22219;SDS011;11279;48.364;10.904;2022-08-04T07:33:19;4.57;;;3.00;;
22219;SDS011;11279;48.364;10.904;2022-08-04T07:34:20;5.97;;;3.50;;
22219;SDS011;11279;48.364;10.904;2022-08-04T07:35:22;5.85;;;3.25;;
22219;SDS011;11279;48.364;10.904;2022-08-04T07:36:22;6.55;;;3.95;;
22219;SDS011;11279;48.364;10.904;2022-08-04T07:37:23;3.28;;;2.95;;
22219;SDS011;11279;48.364;10.904;2022-08-04T07:38:23;4.32;;;3.15;;
22219;SDS011;11279;48.364;10.904;2022-08-04T07:39:27;5.22;;;3.30;;
22219;SDS011;11279;48.364;10.904;2022-08-04T07:40:30;7.00;;;3.40;;
22219;SDS011;11279;48.364;10.904;2022-08-04T07:41:31;6.70;;;3.13;;
22219;SDS011;11279;48.364;10.904;2022-08-04T07:42:32;5.20;;;3.10;;
22219;SDS011;11279;48.364;10.904;2022-08-04T07:43:35;3.03;;;2.72;;
22219;SDS011;11279;48.364;10.904;2022-08-04T07:44:35;6.50;;;3.28;;
22219;SDS011;11279;48.364;10.904;2022-08-04T07:45:36;3.85;;;3.17;;
22219;SDS011;11279;48.364;10.904;2022-08-04T07:46:37;3.55;;;3.03;;
22219;SDS011;11279;48.364;10.904;2022-08-04T07:47:37;8.02;;;3.10;;
22219;SDS011;11279;48.364;10.904;2022-08-04T07:48:39;14.70;;;7.55;;
22219;SDS011;11279;48.364;10.904;2022-08-04T07:49:40;3.78;;;3.38;;
22219;SDS011;11279;48.364;10.904;2022-08-04T07:50:41;4.88;;;3.00;;
22219;SDS011;11279;48.364;10.904;2022-08-04T07:51:42;5.53;;;3.05;;
22219;SDS011;11279;48.364;10.904;2022-08-04T07:52:43;4.20;;;3.00;;
22219;SDS011;11279;48.364;10.904;2022-08-04T07:53:44;4.55;;;3.35;;
22219;SDS011;11279;48.364;10.904;2022-08-04T07:54:45;5.95;;;3.35;;
22219;SDS011;11279;48.364;10.904;2022-08-04T07:55:45;7.40;;;3.65;;
22219;SDS011;11279;48.364;10.904;2022-08-04T07:56:46;4.57;;;3.53;;
22219;SDS011;11279;48.364;10.904;2022-08-04T07:57:50;8.75;;;3.35;;
22219;SDS011;11279;48.364;10.904;2022-08-04T07:58:51;4.30;;;3.50;;
22219;SDS011;11279;48.364;10.904;2022-08-04T07:59:51;8.02;;;4.45;;
22219;SDS011;11279;48.364;10.904;2022-08-04T08:00:52;4.75;;;3.50;;
22219;SDS011;11279;48.364;10.904;2022-08-04T08:01:52;6.30;;;3.47;;
22219;SDS011;11279;48.364;10.904;2022-08-04T08:02:53;6.25;;;2.85;;
22219;SDS011;11279;48.364;10.904;2022-08-04T08:03:55;6.55;;;3.45;;
22219;SDS011;11279;48.364;10.904;2022-08-04T08:04:56;5.40;;;3.35;;
22219;SDS011;11279;48.364;10.904;2022-08-04T08:05:57;4.35;;;3.80;;
22219;SDS011;11279;48.364;10.904;2022-08-04T08:06:57;4.00;;;3.28;;
22219;SDS011;11279;48.364;10.904;2022-08-04T08:07:58;3.55;;;2.92;;
22219;SDS011;11279;48.364;10.904;2022-08-04T08:08:58;5.53;;;3.50;;
22219;SDS011;11279;48.364;10.904;2022-08-04T08:10:02;5.10;;;3.10;;
22219;SDS011;11279;48.364;10.904;2022-08-04T08:11:03;4.20;;;2.85;;
22219;SDS011;11279;48.364;10.904;2022-08-04T08:12:05;5.70;;;3.10;;
22219;SDS011;11279;48.364;10.904;2022-08-04T08:13:06;6.93;;;3.35;;
22219;SDS011;11279;48.364;10.904;2022-08-04T08:14:07;3.28;;;2.67;;
22219;SDS011;11279;48.364;10.904;2022-08-04T08:15:09;6.75;;;3.10;;
22219;SDS011;11279;48.364;10.904;2022-08-04T08:16:11;3.67;;;2.90;;
22219;SDS011;11279;48.364;10.904;2022-08-04T08:17:12;3.70;;;2.95;;
22219;SDS011;11279;48.364;10.904;2022-08-04T08:18:12;3.25;;;2.92;;
22219;SDS011;11279;48.364;10.904;2022-08-04T08:19:13;3.92;;;3.10;;
22219;SDS011;11279;48.364;10.904;2022-08-04T08:20:14;4.60;;;3.17;;
22219;SDS011;11279;48.364;10.904;2022-08-04T08:21:14;4.13;;;3.20;;
22219;SDS011;11279;48.364;10.904;2022-08-04T08:22:18;4.82;;;3.03;;
22219;SDS011;11279;48.364;10.904;2022-08-04T08:23:19;4.07;;;3.00;;
22219;SDS011;11279;48.364;10.904;2022-08-04T08:24:20;4.20;;;3.33;;